Terminal Aerodrome Forecast
Issued by NWS

Home | Current Version | Previous Version | Text Only | Print | Product List | Glossary On
Versions: 1 2 3 4 5 6 7 8 9 10 11 12 13 14 15 16 17 18 19 20 21 22 23 24 25 26 27 28
000
FTUS43 KDTX 230915 AAA
TAFMBS
TAF AMD
KMBS 230915Z 2309/2406 04007KT 1/4SM FG VV002
      TEMPO 2310/2314 1/2SM FG VV004
     FM231400 04007KT 1SM -RA BR OVC004
     FM232000 03006KT 2SM -RA BR OVC008
     FM240200 02003KT 1SM -DZ BR OVC004=

USA.gov is the U.S. government's official web portal to all federal, state and local government web resources and services.